Time;durP1;ratioP1;P1;durP2;ratioP2;P2;SDS_P1;SDS_P2;PMS_P1;PMS_P2;Temp;Humidity;BMP_temperature;BMP_pressure;BME280_temperature;BME280_humidity;BME280_pressure;Samples;Min_cycle;Max_cycle;Signal;HPM_P1;HPM_P2
2024/03/07 00:00:32;;;;;;;;;26.00;20.00;;;;;7.72;65.99;102099.72;2010715;28;3587754;-64
2024/03/07 00:01:43;;;;;;;;;25.67;22.00;;;;;7.72;66.18;102097.13;2015201;28;3560688;-64
2024/03/07 00:02:55;;;;;;;;;34.67;24.00;;;;;7.72;66.05;102094.50;2008876;28;3606856;-64
2024/03/07 00:04:07;;;;;;;;;30.67;26.33;;;;;7.69;66.11;102094.50;2011316;28;3588773;-64
2024/03/07 00:05:23;;;;;;;;;27.67;23.33;;;;;7.67;66.25;102093.63;1987806;28;3584602;-64
2024/03/07 00:06:34;;;;;;;;;26.33;23.00;;;;;7.68;66.14;102092.75;1999441;28;3581485;-64
2024/03/07 00:07:47;;;;;;;;;23.00;22.33;;;;;7.67;66.67;102101.47;1993002;28;3560666;-64
2024/03/07 00:08:58;;;;;;;;;31.67;27.33;;;;;7.65;65.99;102091.00;1993097;28;3579394;-64
2024/03/07 00:10:11;;;;;;;;;22.00;19.67;;;;;7.63;66.21;102096.22;2015647;28;3562311;-64
2024/03/07 00:11:23;;;;;;;;;19.60;18.20;;;;;7.62;66.50;102089.25;2020845;28;2829417;-64
2024/03/07 00:12:40;;;;;;;;;28.33;24.33;;;;;7.62;66.19;102089.25;1987353;28;3588801;-64
2024/03/07 00:13:50;;;;;;;;;22.50;19.00;;;;;7.61;66.18;102092.72;1994057;28;2830459;-64
2024/03/07 00:15:03;;;;;;;;;25.33;21.67;;;;;7.58;66.03;102086.63;2013253;28;3576272;-64
2024/03/07 00:16:15;;;;;;;;;24.67;23.00;;;;;7.58;66.53;102086.63;2000279;28;3566915;-64
2024/03/07 00:17:26;;;;;;;;;26.20;22.40;;;;;7.55;66.23;102084.88;2019257;28;3585989;-64
2024/03/07 00:18:38;;;;;;;;;32.00;26.40;;;;;7.55;66.37;102087.50;2019616;28;3578306;-64
2024/03/07 00:19:50;;;;;;;;;28.00;23.40;;;;;7.54;66.35;102085.75;2018121;28;3575199;-64
2024/03/07 00:21:03;;;;;;;;;25.00;21.33;;;;;7.54;66.63;102093.59;2016622;28;3577330;-64
2024/03/07 00:22:14;;;;;;;;;27.00;24.00;;;;;7.54;66.24;102090.97;1994068;28;2841951;-64
2024/03/07 00:23:25;;;;;;;;;25.00;23.00;;;;;7.52;66.80;102088.38;1971370;28;2844050;-64
2024/03/07 00:24:37;;;;;;;;;27.33;23.33;;;;;7.52;66.41;102095.34;2017147;28;3577319;-64
2024/03/07 00:25:49;;;;;;;;;31.33;26.00;;;;;7.49;66.57;102088.34;2000010;28;3586773;-64
2024/03/07 00:27:01;;;;;;;;;23.00;21.00;;;;;7.47;66.28;102082.25;2008502;28;3573140;-64
2024/03/07 00:28:13;;;;;;;;;25.67;22.33;;;;;7.49;66.55;102083.13;1994997;28;3594005;-64
2024/03/07 00:29:25;;;;;;;;;28.33;25.33;;;;;7.48;66.46;102077.91;2016424;28;3591902;-64
2024/03/07 00:30:37;;;;;;;;;33.00;28.33;;;;;7.50;66.41;102089.25;1991987;28;3595047;-64
2024/03/07 00:31:49;;;;;;;;;29.33;24.00;;;;;7.48;66.20;102085.75;1986055;28;3586682;-64
2024/03/07 00:33:01;;;;;;;;;29.00;25.67;;;;;7.46;66.40;102082.25;2016260;28;3573157;-64
2024/03/07 00:34:18;;;;;;;;;27.60;26.80;;;;;7.42;66.82;102079.63;2021152;28;3578332;-64
2024/03/07 00:35:30;;;;;;;;;25.33;23.00;;;;;7.46;66.64;102083.09;2000129;28;3573133;-64
2024/03/07 00:36:45;;;;;;;;;29.80;24.60;;;;;7.43;66.64;102083.13;2021626;28;3579359;-64
2024/03/07 00:37:57;;;;;;;;;25.00;22.00;;;;;7.42;66.73;102082.25;2001426;28;2837713;-64
2024/03/07 00:39:11;;;;;;;;;26.67;23.33;;;;;7.35;66.51;102071.75;1975495;28;3577296;-64
2024/03/07 00:40:24;;;;;;;;;24.60;20.40;;;;;7.39;66.63;102077.00;2019046;28;2846067;-64
2024/03/07 00:41:36;;;;;;;;;25.67;19.33;;;;;7.38;66.50;102077.84;1992314;28;3581594;-65
2024/03/07 00:42:47;;;;;;;;;23.33;22.67;;;;;7.32;66.57;102070.88;2000279;28;3574194;-64
2024/03/07 00:43:59;;;;;;;;;25.00;19.67;;;;;7.37;66.19;102083.97;2014690;28;3575239;-64
2024/03/07 00:45:11;;;;;;;;;28.40;23.60;;;;;7.37;66.81;102083.97;2018433;28;3593945;-64
2024/03/07 00:46:23;;;;;;;;;29.67;25.33;;;;;7.35;66.37;102075.25;1992646;28;3574210;-64
2024/03/07 00:47:35;;;;;;;;;33.00;26.00;;;;;7.30;66.97;102071.75;1999770;28;3585691;-64
2024/03/07 00:48:47;;;;;;;;;27.00;26.67;;;;;7.35;66.45;102075.25;1984966;28;3576269;-64
2024/03/07 00:49:59;;;;;;;;;26.00;20.67;;;;;7.34;66.41;102078.72;2013622;28;3575229;-64
2024/03/07 00:51:10;;;;;;;;;24.50;21.50;;;;;7.31;66.45;102076.09;2012533;28;2824236;-64
2024/03/07 00:52:22;;;;;;;;;25.67;22.67;;;;;7.30;66.61;102072.63;1994994;28;3577303;-64
2024/03/07 00:53:34;;;;;;;;;26.33;22.33;;;;;7.30;66.54;102077.88;2017361;28;3585648;-64
2024/03/07 00:54:47;;;;;;;;;26.29;24.43;;;;;7.31;66.72;102076.09;2028672;28;2856508;-64
2024/03/07 00:55:59;;;;;;;;;24.00;21.00;;;;;7.28;66.32;102074.38;1993505;28;3574219;-64
2024/03/07 00:57:11;;;;;;;;;24.67;21.67;;;;;7.25;66.42;102069.13;2011728;28;3579757;-64
2024/03/07 00:58:23;;;;;;;;;27.20;21.80;;;;;7.26;66.92;102078.69;2020443;28;3587714;-64
2024/03/07 00:59:35;;;;;;;;;19.67;18.67;;;;;7.26;66.94;102080.47;2007169;28;2825375;-64
2024/03/07 01:00:45;;;;;;;;;18.00;16.00;;;;;7.23;66.97;102077.84;1991930;28;2821119;-64
2024/03/07 01:01:58;;;;;;;;;22.00;21.33;;;;;7.24;67.18;102082.19;1987208;28;3567902;-64
2024/03/07 01:03:13;;;;;;;;;22.50;19.00;;;;;7.24;66.98;102079.56;1990247;28;2828386;-64
2024/03/07 01:04:24;;;;;;;;;25.50;21.00;;;;;7.21;66.76;102072.59;1976859;28;2821466;-64
2024/03/07 01:05:36;;;;;;;;;22.00;21.00;;;;;7.22;67.18;102073.47;1998800;28;3575280;-64
2024/03/07 01:06:48;;;;;;;;;24.33;23.33;;;;;7.24;67.06;102079.56;2005177;28;3575636;-64
2024/03/07 01:08:00;;;;;;;;;25.00;18.80;;;;;7.21;66.83;102069.97;2020934;28;3581558;-64
2024/03/07 01:09:16;;;;;;;;;25.00;21.67;;;;;7.23;67.10;102075.22;2017546;28;2822141;-64
2024/03/07 01:10:28;;;;;;;;;28.33;20.33;;;;;7.19;66.72;102067.38;1999765;28;3581489;-64
2024/03/07 01:11:44;;;;;;;;;18.67;17.33;;;;;7.21;66.72;102072.59;1999293;28;2827349;-64
2024/03/07 01:13:00;;;;;;;;;23.67;21.67;;;;;7.18;66.97;102073.47;1999547;28;3555477;-64
2024/03/07 01:14:11;;;;;;;;;23.00;16.50;;;;;7.18;66.97;102063.03;1997695;28;2835671;-64
2024/03/07 01:15:23;;;;;;;;;24.67;23.67;;;;;7.19;66.52;102069.09;2004926;28;3573161;-64
2024/03/07 01:16:34;;;;;;;;;20.00;18.00;;;;;7.15;67.11;102064.75;2002035;28;2821111;-64
2024/03/07 01:17:45;;;;;;;;;22.00;22.00;;;;;7.16;67.02;102067.34;1977775;28;2836739;-64
2024/03/07 01:18:57;;;;;;;;;23.67;21.67;;;;;7.15;67.18;102076.06;2010173;28;2839964;-64
2024/03/07 01:20:09;;;;;;;;;23.67;18.00;;;;;7.16;66.98;102063.88;1990235;28;3583581;-64
2024/03/07 01:21:20;;;;;;;;;19.67;19.67;;;;;7.17;66.75;102066.50;1992216;28;3566916;-64
2024/03/07 01:22:32;;;;;;;;;23.00;18.00;;;;;7.15;66.76;102070.84;2007385;28;3560151;-64
2024/03/07 01:23:45;;;;;;;;;21.33;21.00;;;;;7.11;67.00;102058.66;2005264;28;3562756;-64
2024/03/07 01:24:55;;;;;;;;;26.00;22.00;;;;;7.14;67.09;102070.81;1993728;28;2837778;-64
2024/03/07 01:26:08;;;;;;;;;27.00;23.50;;;;;7.13;66.85;102059.50;2018220;28;1837779;-64
2024/03/07 01:27:19;;;;;;;;;22.33;17.33;;;;;7.13;67.04;102069.97;1969698;28;3570012;-64
2024/03/07 01:28:31;;;;;;;;;23.00;20.67;;;;;7.12;66.60;102055.13;2011052;28;3573148;-64
2024/03/07 01:29:44;;;;;;;;;17.50;15.00;;;;;7.13;67.00;102066.47;2005192;28;2817978;-64
2024/03/07 01:30:57;;;;;;;;;20.00;18.67;;;;;7.09;66.70;102053.38;1968257;28;3566963;-64
2024/03/07 01:32:10;;;;;;;;;23.67;20.00;;;;;7.07;66.55;102049.03;2020885;28;1841955;-64
2024/03/07 01:33:22;;;;;;;;;23.67;18.67;;;;;7.08;66.83;102050.78;1969016;28;3575221;-64
2024/03/07 01:34:34;;;;;;;;;20.67;18.00;;;;;7.09;66.61;102050.78;1997274;28;3564825;-64
2024/03/07 01:35:45;;;;;;;;;16.00;14.50;;;;;7.06;66.93;102045.53;2003209;28;2804918;-64
2024/03/07 01:36:58;;;;;;;;;21.33;19.50;;;;;7.08;66.87;102048.16;1994847;28;1844024;-64
2024/03/07 01:38:10;;;;;;;;;20.50;16.50;;;;;7.05;67.11;102043.81;1968441;28;2822654;-64
2024/03/07 01:39:22;;;;;;;;;23.00;17.33;;;;;7.07;66.57;102038.56;1976003;28;3548138;-64
2024/03/07 01:40:33;;;;;;;;;21.50;15.00;;;;;7.03;66.47;102036.81;2016610;28;2810047;-64
2024/03/07 01:41:47;;;;;;;;;24.67;21.00;;;;;7.03;66.58;102037.69;1999614;28;1844102;-64
2024/03/07 01:43:01;;;;;;;;;20.33;20.33;;;;;6.98;66.43;102024.63;1999332;28;3568995;-64
2024/03/07 01:44:13;;;;;;;;;19.00;17.60;;;;;7.02;66.48;102035.06;2012275;28;2829775;-64
2024/03/07 01:45:25;;;;;;;;;18.33;18.33;;;;;7.00;66.68;102023.72;1991038;28;3558951;-64
2024/03/07 01:46:38;;;;;;;;;26.50;21.50;;;;;6.97;66.86;102020.25;2030692;28;2831468;-64
2024/03/07 01:47:50;;;;;;;;;24.00;20.00;;;;;6.98;66.81;102023.75;1994576;28;3564824;-64
2024/03/07 01:49:02;;;;;;;;;21.33;19.67;;;;;6.97;66.53;102017.63;2001760;28;3575236;-64
2024/03/07 01:50:15;;;;;;;;;30.33;21.67;;;;;6.97;66.68;102016.75;2001049;28;3591917;-64
2024/03/07 01:51:27;;;;;;;;;24.00;21.00;;;;;6.97;66.72;102019.38;1992194;28;3569001;-64
2024/03/07 01:52:41;;;;;;;;;24.00;22.33;;;;;6.96;67.03;102023.72;1998236;28;2835819;-64
2024/03/07 01:53:53;;;;;;;;;22.33;21.00;;;;;6.94;66.81;102015.00;1991860;28;3564809;-64
2024/03/07 01:55:05;;;;;;;;;23.00;22.00;;;;;6.92;66.64;102008.91;1991790;28;3572124;-64
2024/03/07 01:56:18;;;;;;;;;25.00;21.67;;;;;6.94;66.83;102008.91;1991367;28;3563791;-64
2024/03/07 01:57:29;;;;;;;;;24.00;20.67;;;;;6.93;66.61;102004.53;1991930;28;3564860;-64
2024/03/07 01:58:42;;;;;;;;;23.00;20.33;;;;;6.91;66.61;102001.94;2011476;28;3554769;-64
2024/03/07 01:59:56;;;;;;;;;22.33;18.83;;;;;6.92;66.51;102014.13;2025306;28;1834712;-64
2024/03/07 02:01:11;;;;;;;;;21.00;19.50;;;;;6.88;66.43;101999.31;2003786;28;1838865;-64
2024/03/07 02:02:23;;;;;;;;;20.60;19.40;;;;;6.89;66.84;102003.66;1989116;28;2820087;-64
2024/03/07 02:03:36;;;;;;;;;21.33;20.67;;;;;6.89;66.34;102003.66;1989263;28;2831555;-64
2024/03/07 02:04:49;;;;;;;;;18.80;17.80;;;;;6.86;66.46;102003.66;2017773;28;2833576;-64
2024/03/07 02:06:02;;;;;;;;;23.67;19.33;;;;;6.88;66.80;102006.28;1978136;28;2826335;-64
2024/03/07 02:07:13;;;;;;;;;26.00;21.00;;;;;6.84;66.54;101997.56;1999722;28;2839836;-64
2024/03/07 02:08:26;;;;;;;;;22.17;20.83;;;;;6.85;66.57;102002.78;2006535;28;2833604;-64
2024/03/07 02:09:38;;;;;;;;;18.50;16.00;;;;;6.80;66.62;101993.19;1989917;28;2821103;-64
2024/03/07 02:10:49;;;;;;;;;20.67;19.00;;;;;6.82;66.42;101996.66;1974987;28;3562732;-64
2024/03/07 02:12:01;;;;;;;;;26.67;20.67;;;;;6.82;66.41;101997.53;2010829;28;3567960;-64
2024/03/07 02:13:12;;;;;;;;;19.00;19.00;;;;;6.79;66.78;101992.28;2002132;28;2829489;-64
2024/03/07 02:14:23;;;;;;;;;21.50;19.00;;;;;6.82;66.57;101994.03;1984911;28;2831477;-64
2024/03/07 02:15:35;;;;;;;;;21.67;18.67;;;;;6.80;66.56;101982.72;1985206;28;3559623;-64
2024/03/07 02:16:47;;;;;;;;;20.67;19.67;;;;;6.79;66.68;101994.91;2007639;28;3557532;-64
2024/03/07 02:17:59;;;;;;;;;23.00;19.80;;;;;6.76;66.78;101987.06;2018050;28;1839858;-64
2024/03/07 02:19:14;;;;;;;;;23.67;22.00;;;;;6.77;66.43;101985.31;1991536;28;3581505;-64
2024/03/07 02:20:25;;;;;;;;;24.50;21.00;;;;;6.76;66.56;101981.84;1993388;28;2827377;-64
2024/03/07 02:21:38;;;;;;;;;28.67;20.17;;;;;6.72;66.67;101985.31;2024533;28;2855466;-64
2024/03/07 02:22:50;;;;;;;;;21.00;20.67;;;;;6.72;66.56;101986.19;1975486;28;3561676;-64
2024/03/07 02:24:01;;;;;;;;;21.50;17.00;;;;;6.71;66.43;101984.47;1984253;28;2820046;-64
2024/03/07 02:25:13;;;;;;;;;23.33;22.00;;;;;6.72;66.53;101977.47;1986478;28;3570004;-64
2024/03/07 02:26:24;;;;;;;;;27.33;17.67;;;;;6.72;66.74;101985.31;2009392;28;2846095;-64
2024/03/07 02:27:36;;;;;;;;;24.33;20.00;;;;;6.72;66.87;101980.06;1990354;28;2833713;-64
2024/03/07 02:28:50;;;;;;;;;22.33;19.00;;;;;6.70;66.85;101982.69;2025290;28;1842007;-64
2024/03/07 02:30:03;;;;;;;;;23.33;21.67;;;;;6.70;66.67;101981.81;1976561;28;2832621;-64
2024/03/07 02:31:16;;;;;;;;;18.60;15.20;;;;;6.66;66.40;101975.72;2020560;28;2817971;-64
2024/03/07 02:32:29;;;;;;;;;22.67;19.00;;;;;6.64;66.80;101975.69;2006571;28;1838898;-64
2024/03/07 02:33:41;;;;;;;;;24.00;19.67;;;;;6.67;66.78;101974.84;1978224;28;2844090;-64
2024/03/07 02:34:54;;;;;;;;;19.00;19.00;;;;;6.67;66.70;101980.06;2030129;28;1833648;-64
2024/03/07 02:36:06;;;;;;;;;22.33;21.67;;;;;6.65;66.90;101968.75;1976385;28;3571108;-64
2024/03/07 02:37:18;;;;;;;;;21.67;19.33;;;;;6.63;66.58;101970.47;2013498;28;3564863;-64
2024/03/07 02:38:29;;;;;;;;;20.67;18.00;;;;;6.62;66.92;101963.50;2010298;28;3560678;-64
2024/03/07 02:39:42;;;;;;;;;19.83;19.33;;;;;6.62;66.83;101967.00;2033093;28;2825706;-64
2024/03/07 02:40:54;;;;;;;;;20.33;20.00;;;;;6.61;67.06;101967.88;1993235;28;3559668;-64
2024/03/07 02:42:06;;;;;;;;;20.33;20.33;;;;;6.62;66.91;101963.50;2013895;28;2833732;-64
2024/03/07 02:43:17;;;;;;;;;21.50;14.50;;;;;6.60;66.95;101960.00;1999954;28;2812121;-64
2024/03/07 02:44:29;;;;;;;;;23.33;18.67;;;;;6.60;66.66;101960.88;1992447;28;2829496;-64
2024/03/07 02:45:40;;;;;;;;;20.50;19.50;;;;;6.59;66.59;101951.28;2000690;28;2830455;-64
2024/03/07 02:46:52;;;;;;;;;24.67;19.67;;;;;6.62;66.87;101960.88;1988062;28;3581510;-64
2024/03/07 02:48:05;;;;;;;;;19.50;15.00;;;;;6.58;66.83;101956.53;2012974;28;2814858;-64
2024/03/07 02:49:15;;;;;;;;;19.00;17.50;;;;;6.60;66.55;101954.78;1961591;28;2826831;-64
2024/03/07 02:50:26;;;;;;;;;14.25;14.25;;;;;6.59;66.74;101956.50;2004017;28;1839833;-64
2024/03/07 02:51:38;;;;;;;;;18.67;16.67;;;;;6.59;66.67;101958.28;1971073;28;2822110;-64
2024/03/07 02:52:52;;;;;;;;;18.43;16.86;;;;;6.59;66.88;101961.75;2020639;28;1840944;-64
2024/03/07 02:54:05;;;;;;;;;21.67;18.67;;;;;6.57;66.40;101952.19;1984560;28;3555518;-64
2024/03/07 02:55:19;;;;;;;;;16.50;16.50;;;;;6.53;66.13;101954.78;2015543;28;1830526;-64
2024/03/07 02:56:32;;;;;;;;;18.83;15.67;;;;;6.57;66.61;101954.78;1998830;28;1838903;-64
2024/03/07 02:57:45;;;;;;;;;17.67;16.83;;;;;6.56;66.75;101953.03;1999332;28;1839903;-64
2024/03/07 02:58:56;;;;;;;;;21.50;21.00;;;;;6.52;66.76;101950.41;1970238;28;2833639;-64
2024/03/07 03:00:19;;;;;;;;;23.00;19.60;;;;;6.55;66.86;101951.28;1997720;28;2822205;-64
2024/03/07 03:01:29;;;;;;;;;23.00;19.50;;;;;6.53;66.88;101952.16;2000817;28;2827349;-64
2024/03/07 03:02:41;;;;;;;;;23.33;22.67;;;;;6.50;66.51;101951.25;1995367;28;3562717;-64
2024/03/07 03:03:52;;;;;;;;;22.50;20.50;;;;;6.47;66.12;101949.50;2018522;28;2827340;-64
2024/03/07 03:05:06;;;;;;;;;23.00;18.00;;;;;6.49;66.71;101946.94;1995218;28;2824177;-64
2024/03/07 03:06:20;;;;;;;;;23.00;21.33;;;;;6.46;66.58;101947.78;1975995;28;2835804;-64
2024/03/07 03:07:34;;;;;;;;;22.57;17.86;;;;;6.48;66.46;101947.78;2027755;28;1831523;-64
2024/03/07 03:08:47;;;;;;;;;20.83;19.00;;;;;6.47;66.64;101944.28;2025208;28;1844119;-64
2024/03/07 03:10:00;;;;;;;;;20.40;16.20;;;;;6.46;66.54;101945.16;1997425;28;2825219;-64
2024/03/07 03:11:13;;;;;;;;;26.25;20.50;;;;;6.45;66.65;101940.81;2004981;28;1841941;-64
2024/03/07 03:12:25;;;;;;;;;22.67;19.67;;;;;6.46;66.42;101944.28;1977833;28;3574541;-64
2024/03/07 03:13:40;;;;;;;;;23.67;16.67;;;;;6.41;66.52;101939.06;2000112;28;3558578;-64
2024/03/07 03:14:54;;;;;;;;;21.00;20.17;;;;;6.43;66.38;101939.03;2028713;28;1846147;-64
2024/03/07 03:16:07;;;;;;;;;24.67;19.33;;;;;6.40;66.42;101932.06;1973369;28;3565876;-64
2024/03/07 03:17:18;;;;;;;;;25.67;20.67;;;;;6.39;66.52;101933.84;2004491;28;3575264;-64
2024/03/07 03:18:29;;;;;;;;;14.00;13.00;;;;;6.41;66.65;101937.31;2015299;28;2788812;-64
2024/03/07 03:19:41;;;;;;;;;24.33;20.67;;;;;6.41;66.79;101939.94;2019365;28;3567965;-64
2024/03/07 03:20:53;;;;;;;;;21.67;20.00;;;;;6.38;66.88;101933.81;2009261;28;3573145;-64
2024/03/07 03:22:05;;;;;;;;;26.00;21.33;;;;;6.37;66.49;101935.53;2017084;28;3579391;-64
2024/03/07 03:23:16;;;;;;;;;28.00;21.67;;;;;6.39;67.01;101930.34;2012873;28;3571126;-64
2024/03/07 03:24:28;;;;;;;;;19.67;19.00;;;;;6.35;66.62;101924.22;2015664;28;2825298;-64
2024/03/07 03:25:41;;;;;;;;;27.67;20.00;;;;;6.34;67.03;101924.22;1991667;28;3567953;-64
2024/03/07 03:26:52;;;;;;;;;28.33;22.00;;;;;6.38;66.93;101931.19;1992400;28;3588776;-64
2024/03/07 03:28:05;;;;;;;;;22.67;18.67;;;;;6.35;66.67;101923.34;2008162;28;2824278;-64
2024/03/07 03:29:18;;;;;;;;;21.50;16.00;;;;;6.36;66.71;101925.09;1996542;28;2801337;-64
2024/03/07 03:30:28;;;;;;;;;25.00;19.00;;;;;6.36;66.72;101922.50;1999162;28;2827389;-64
2024/03/07 03:31:40;;;;;;;;;24.67;23.00;;;;;6.35;66.99;101925.94;1991184;28;3574148;-64
2024/03/07 03:32:51;;;;;;;;;23.50;18.50;;;;;6.35;66.74;101928.56;2026723;28;1838837;-64
2024/03/07 03:34:02;;;;;;;;;25.50;22.00;;;;;6.35;67.00;101924.22;1978317;28;2833591;-64
2024/03/07 03:35:15;;;;;;;;;20.67;19.33;;;;;6.34;66.95;101925.09;1989794;28;2832628;-64
2024/03/07 03:36:26;;;;;;;;;22.00;18.00;;;;;6.34;66.70;101913.78;1990945;28;2825237;-64
2024/03/07 03:37:37;;;;;;;;;20.00;17.00;;;;;6.33;67.19;101918.13;1984227;28;2827350;-64
2024/03/07 03:38:48;;;;;;;;;17.00;14.00;;;;;6.30;66.96;101911.16;1991196;28;2798222;-64
2024/03/07 03:40:00;;;;;;;;;18.67;16.67;;;;;6.33;66.77;101914.63;1992578;28;3562693;-64
2024/03/07 03:41:18;;;;;;;;;22.67;19.00;;;;;6.29;67.05;101909.44;2004113;28;2826414;-64
2024/03/07 03:42:29;;;;;;;;;21.50;19.50;;;;;6.29;67.22;101905.94;1992149;28;2819048;-64
2024/03/07 03:43:40;;;;;;;;;22.50;17.00;;;;;6.29;66.76;101914.66;1985556;28;2828356;-64
2024/03/07 03:44:53;;;;;;;;;18.67;16.67;;;;;6.27;66.96;101916.34;1988116;28;2828561;-64
2024/03/07 03:46:03;;;;;;;;;21.00;18.50;;;;;6.30;66.86;101916.38;1997311;28;2825281;-64
2024/03/07 03:47:15;;;;;;;;;21.20;19.60;;;;;6.30;66.83;101905.03;1997833;28;3562689;-64
2024/03/07 03:48:26;;;;;;;;;18.50;17.00;;;;;6.29;66.89;101912.03;2008711;28;2830498;-64
2024/03/07 03:49:37;;;;;;;;;24.00;20.00;;;;;6.26;67.03;101913.75;1966144;28;2824212;-64
2024/03/07 03:50:48;;;;;;;;;25.25;20.00;;;;;6.26;66.70;101917.25;2000053;28;1837814;-64
2024/03/07 03:52:01;;;;;;;;;22.17;17.33;;;;;6.27;67.08;101916.34;2004827;28;1841996;-64
2024/03/07 03:53:13;;;;;;;;;23.33;19.33;;;;;6.24;66.70;101916.38;1976786;28;3559659;-64
2024/03/07 03:54:25;;;;;;;;;20.33;20.00;;;;;6.25;67.10;101912.88;2016497;28;2833671;-64
2024/03/07 03:55:37;;;;;;;;;20.00;17.00;;;;;6.27;66.97;101921.56;2000280;28;3564835;-64
2024/03/07 03:56:47;;;;;;;;;20.00;17.50;;;;;6.26;67.01;101922.47;2001655;28;2820074;-64
2024/03/07 03:57:58;;;;;;;;;23.00;18.00;;;;;6.25;66.93;101919.81;2002751;28;1839871;-64
2024/03/07 03:59:11;;;;;;;;;20.80;19.20;;;;;6.25;67.05;101922.44;1994990;28;2825262;-64
2024/03/07 04:00:22;;;;;;;;;22.00;20.75;;;;;6.25;67.27;101918.09;1985402;28;1840910;-64
2024/03/07 04:01:37;;;;;;;;;21.29;19.00;;;;;6.25;66.73;101914.59;1989543;28;1839906;-64
2024/03/07 04:02:48;;;;;;;;;21.00;19.00;;;;;6.24;67.04;101918.97;1993122;28;2822141;-64
2024/03/07 04:04:02;;;;;;;;;22.17;18.67;;;;;6.21;67.01;101916.34;2024985;28;1837834;-64
2024/03/07 04:05:13;;;;;;;;;21.00;19.00;;;;;6.22;67.11;101910.28;1977213;28;2830481;-64
2024/03/07 04:06:26;;;;;;;;;19.00;14.83;;;;;6.18;66.99;101900.66;2006781;28;1841119;-64
2024/03/07 04:07:37;;;;;;;;;23.50;19.00;;;;;6.25;67.16;101912.88;1976543;28;2835690;-64
2024/03/07 04:08:49;;;;;;;;;24.67;21.00;;;;;6.24;67.88;101918.97;1975410;28;2834167;-64
2024/03/07 04:10:01;;;;;;;;;23.00;20.67;;;;;6.25;66.85;101922.44;1998428;28;2827456;-64
2024/03/07 04:11:11;;;;;;;;;22.50;18.50;;;;;6.21;67.20;101905.91;1999045;28;2825297;-64
2024/03/07 04:12:26;;;;;;;;;21.67;18.33;;;;;6.17;66.87;101909.38;2009987;28;2823174;-64
2024/03/07 04:13:38;;;;;;;;;23.00;21.00;;;;;6.24;66.80;101916.38;1978075;28;2844039;-64
2024/03/07 04:14:49;;;;;;;;;18.67;17.00;;;;;6.23;67.16;101909.38;1968920;28;2827357;-64
2024/03/07 04:16:02;;;;;;;;;27.17;21.17;;;;;6.20;67.12;101906.75;2019982;28;1844036;-64
2024/03/07 04:17:14;;;;;;;;;24.00;17.33;;;;;6.22;67.26;101909.38;1981297;28;2832768;-64
2024/03/07 04:18:26;;;;;;;;;22.00;18.60;;;;;6.20;67.36;101901.53;2010462;28;2831881;-64
2024/03/07 04:19:40;;;;;;;;;21.50;17.50;;;;;6.22;67.03;101906.78;1978095;28;2826327;-64
2024/03/07 04:20:51;;;;;;;;;17.33;15.67;;;;;6.21;66.67;101908.50;1962876;28;2811777;-64
2024/03/07 04:22:05;;;;;;;;;20.67;20.00;;;;;6.21;67.12;101905.91;1998765;28;2827370;-64
2024/03/07 04:23:16;;;;;;;;;21.00;21.00;;;;;6.21;67.00;101911.13;1992089;28;2825254;-64
2024/03/07 04:24:35;;;;;;;;;18.67;15.50;;;;;6.20;67.18;101914.59;2027569;28;2825238;-64
2024/03/07 04:25:46;;;;;;;;;22.67;19.00;;;;;6.19;67.29;101916.34;1969948;28;2837869;-64
2024/03/07 04:26:57;;;;;;;;;18.00;17.00;;;;;6.19;67.35;101913.72;1991051;28;2825270;-64
2024/03/07 04:28:08;;;;;;;;;17.50;15.50;;;;;6.16;67.27;101910.22;1985483;28;2813788;-64
2024/03/07 04:29:19;;;;;;;;;17.25;17.25;;;;;6.19;66.83;101905.03;1995471;28;1841988;-64
2024/03/07 04:30:30;;;;;;;;;22.33;19.33;;;;;6.18;67.07;101906.75;1968323;28;2830611;-64
2024/03/07 04:31:41;;;;;;;;;17.00;14.00;;;;;6.18;67.09;101914.59;1992899;28;2796136;-64
2024/03/07 04:32:52;;;;;;;;;21.75;18.75;;;;;6.15;67.24;101898.06;2025875;28;1823775;-64
2024/03/07 04:34:02;;;;;;;;;22.00;19.50;;;;;6.17;66.86;101906.75;1973070;28;2827716;-64
2024/03/07 04:35:16;;;;;;;;;20.50;17.17;;;;;6.17;67.42;101901.53;2003745;28;1837823;-64
2024/03/07 04:36:29;;;;;;;;;21.60;18.40;;;;;6.18;67.40;101905.88;1995605;28;2825230;-64
2024/03/07 04:37:40;;;;;;;;;26.25;20.00;;;;;6.17;67.04;101898.94;2003166;28;1839948;-64
2024/03/07 04:38:51;;;;;;;;;18.00;18.00;;;;;6.14;66.81;101898.91;1977401;28;2828403;-64
2024/03/07 04:40:14;;;;;;;;;27.00;21.50;;;;;6.14;66.95;101896.28;1984516;28;2828366;-64
2024/03/07 04:41:25;;;;;;;;;19.00;17.00;;;;;6.13;67.07;101895.41;1977276;28;2828431;-64
2024/03/07 04:42:36;;;;;;;;;24.00;19.50;;;;;6.16;66.95;101891.94;1994163;28;2820035;-64
2024/03/07 04:43:47;;;;;;;;;23.00;22.00;;;;;6.15;67.17;101903.28;1986675;28;2829444;-64
2024/03/07 04:44:58;;;;;;;;;20.50;19.00;;;;;6.15;66.93;101895.44;1978285;28;2825246;-64
2024/03/07 04:46:10;;;;;;;;;20.33;18.67;;;;;6.02;67.23;101874.47;1992080;28;2818459;-64
2024/03/07 04:47:21;;;;;;;;;22.00;15.00;;;;;6.13;66.96;101895.41;1999583;28;2838835;-64
2024/03/07 04:48:32;;;;;;;;;24.00;19.00;;;;;6.12;67.19;101900.63;1995022;28;2827314;-64
2024/03/07 04:49:43;;;;;;;;;22.75;21.00;;;;;6.09;66.99;101896.28;1998454;28;1842026;-64
2024/03/07 04:50:54;;;;;;;;;22.00;20.00;;;;;6.10;67.13;101897.16;1969845;28;2821105;-64
2024/03/07 04:52:05;;;;;;;;;18.00;16.00;;;;;6.01;66.83;101883.16;1997800;28;1837822;-64
2024/03/07 04:53:16;;;;;;;;;25.00;21.00;;;;;6.07;67.03;101893.63;1975620;28;2839817;-64
2024/03/07 04:54:28;;;;;;;;;19.50;17.50;;;;;6.09;67.16;101885.84;1994855;28;2833935;-64
2024/03/07 04:55:41;;;;;;;;;18.00;16.40;;;;;6.05;67.12;101890.13;1988132;28;2833556;-64
2024/03/07 04:56:52;;;;;;;;;20.00;17.00;;;;;6.08;67.10;101897.13;1987912;28;2834637;-64
2024/03/07 04:58:04;;;;;;;;;23.67;19.33;;;;;6.07;67.20;101901.47;1975331;28;2835687;-64
2024/03/07 04:59:19;;;;;;;;;26.83;19.33;;;;;6.06;67.22;101893.59;2018738;28;1842021;-64
2024/03/07 05:00:30;;;;;;;;;15.00;14.00;;;;;6.06;67.32;101889.28;1970565;28;2805487;-64
2024/03/07 05:01:44;;;;;;;;;26.20;18.00;;;;;6.03;67.20;101890.97;1989880;28;2834589;-64
2024/03/07 05:02:58;;;;;;;;;18.86;15.00;;;;;6.06;67.31;101891.00;2004357;28;1842016;-64
2024/03/07 05:04:09;;;;;;;;;17.50;17.50;;;;;6.02;66.98;101884.91;1999588;28;2822149;-64
2024/03/07 05:05:25;;;;;;;;;20.00;19.00;;;;;6.03;67.31;101891.84;1977253;28;3556514;-64
2024/03/07 05:06:36;;;;;;;;;22.00;20.00;;;;;6.06;67.36;101896.22;1999847;28;2831503;-64
2024/03/07 05:07:49;;;;;;;;;24.50;21.00;;;;;6.05;67.25;101897.09;1993905;28;2827313;-64
2024/03/07 05:09:04;;;;;;;;;25.00;19.57;;;;;6.05;66.98;101892.72;2005203;28;1837807;-64
2024/03/07 05:10:16;;;;;;;;;19.00;18.67;;;;;6.03;67.36;101894.47;1999988;28;3559622;-64
2024/03/07 05:11:31;;;;;;;;;22.33;20.33;;;;;6.02;67.19;101891.84;2016078;28;3559719;-64
2024/03/07 05:12:41;;;;;;;;;17.00;12.50;;;;;6.00;67.14;101890.97;1997398;28;2805478;-64
2024/03/07 05:13:52;;;;;;;;;20.00;18.00;;;;;6.02;67.01;101895.34;2019035;28;2821096;-64
2024/03/07 05:15:05;;;;;;;;;23.00;18.67;;;;;6.02;67.32;101895.34;1994399;28;2826271;-64
2024/03/07 05:16:17;;;;;;;;;21.33;19.67;;;;;6.01;67.00;101888.38;2000020;28;3561644;-64
2024/03/07 05:17:33;;;;;;;;;22.00;21.60;;;;;6.03;67.18;101891.84;2027326;28;1846161;-64
2024/03/07 05:18:44;;;;;;;;;18.00;17.00;;;;;6.04;67.38;101896.22;1968706;28;2819008;-64
2024/03/07 05:19:55;;;;;;;;;19.50;18.00;;;;;6.02;67.39;101889.25;1992917;28;2832565;-64
2024/03/07 05:21:34;;;;;;;;;25.00;21.50;;;;;6.01;67.19;101888.38;1994279;28;2837727;-64
2024/03/07 05:22:40;;;;;;;;;19.67;19.67;;;;;6.02;67.37;101886.63;1974141;28;2825347;-64
2024/03/07 05:23:53;;;;;;;;;19.33;17.00;;;;;5.97;67.45;101884.00;2027199;28;1836792;-64
2024/03/07 05:25:05;;;;;;;;;22.33;19.33;;;;;6.01;67.09;101890.97;1975712;28;3567941;-64